sensor_id;sensor_type;location;lat;lon;timestamp;pressure;altitude;pressure_sealevel;temperature;humidity
46614;BME280;32338;50.430;6.806;2022-10-16T00:01:41;66624.16;;;11.09;100.00
46614;BME280;32338;50.430;6.806;2022-10-16T00:04:08;66621.00;;;11.08;100.00
46614;BME280;32338;50.430;6.806;2022-10-16T00:06:35;66622.66;;;11.10;100.00
46614;BME280;32338;50.430;6.806;2022-10-16T00:09:02;66630.19;;;11.12;100.00
46614;BME280;32338;50.430;6.806;2022-10-16T00:11:31;66619.28;;;11.07;100.00
46614;BME280;32338;50.430;6.806;2022-10-16T00:14:02;66623.41;;;11.06;100.00
46614;BME280;32338;50.430;6.806;2022-10-16T00:16:30;66613.09;;;11.01;100.00
46614;BME280;32338;50.430;6.806;2022-10-16T00:18:57;66606.88;;;10.95;100.00
46614;BME280;32338;50.430;6.806;2022-10-16T00:21:25;66605.19;;;10.94;100.00
46614;BME280;32338;50.430;6.806;2022-10-16T00:23:52;66605.19;;;10.94;100.00
46614;BME280;32338;50.430;6.806;2022-10-16T00:26:19;66603.88;;;10.90;100.00
46614;BME280;32338;50.430;6.806;2022-10-16T00:28:47;66596.00;;;10.83;100.00
46614;BME280;32338;50.430;6.806;2022-10-16T00:31:16;66589.03;;;10.74;100.00
46614;BME280;32338;50.430;6.806;2022-10-16T00:33:43;66589.22;;;10.77;100.00
46614;BME280;32338;50.430;6.806;2022-10-16T00:36:12;66586.78;;;10.72;100.00
46614;BME280;32338;50.430;6.806;2022-10-16T00:38:39;66571.03;;;10.65;100.00
46614;BME280;32338;50.430;6.806;2022-10-16T00:41:06;66586.78;;;10.72;100.00
46614;BME280;32338;50.430;6.806;2022-10-16T00:43:39;66578.88;;;10.65;100.00
46614;BME280;32338;50.430;6.806;2022-10-16T00:46:12;66576.47;;;10.67;100.00
46614;BME280;32338;50.430;6.806;2022-10-16T00:48:43;66577.94;;;10.66;100.00
46614;BME280;32338;50.430;6.806;2022-10-16T00:51:11;66574.00;;;10.63;100.00
46614;BME280;32338;50.430;6.806;2022-10-16T00:53:38;66565.94;;;10.53;100.00
46614;BME280;32338;50.430;6.806;2022-10-16T00:56:05;66561.41;;;10.49;100.00
46614;BME280;32338;50.430;6.806;2022-10-16T00:58:32;66554.28;;;10.45;100.00
46614;BME280;32338;50.430;6.806;2022-10-16T01:00:58;66547.72;;;10.41;100.00
46614;BME280;32338;50.430;6.806;2022-10-16T01:03:28;66554.47;;;10.40;100.00
46614;BME280;32338;50.430;6.806;2022-10-16T01:06:05;66542.66;;;10.36;100.00
46614;BME280;32338;50.430;6.806;2022-10-16T01:08:41;66556.56;;;10.47;100.00
46614;BME280;32338;50.430;6.806;2022-10-16T01:11:17;66556.56;;;10.47;100.00
46614;BME280;32338;50.430;6.806;2022-10-16T01:13:48;66547.91;;;10.44;100.00
46614;BME280;32338;50.430;6.806;2022-10-16T01:16:22;66560.50;;;10.50;100.00
46614;BME280;32338;50.430;6.806;2022-10-16T01:18:54;66557.66;;;10.48;100.00
46614;BME280;32338;50.430;6.806;2022-10-16T01:21:28;66562.19;;;10.52;100.00
46614;BME280;32338;50.430;6.806;2022-10-16T01:24:03;66577.94;;;10.66;100.00
46614;BME280;32338;50.430;6.806;2022-10-16T01:26:46;66573.66;;;10.65;100.00
46614;BME280;32338;50.430;6.806;2022-10-16T01:29:20;66581.69;;;10.67;100.00
46614;BME280;32338;50.430;6.806;2022-10-16T01:31:54;66579.84;;;10.70;100.00
46614;BME280;32338;50.430;6.806;2022-10-16T01:34:31;66579.09;;;10.67;100.00
46614;BME280;32338;50.430;6.806;2022-10-16T01:37:03;66579.66;;;10.68;100.00
46614;BME280;32338;50.430;6.806;2022-10-16T01:39:33;66583.38;;;10.69;100.00
46614;BME280;32338;50.430;6.806;2022-10-16T01:42:06;66583.38;;;10.69;100.00
46614;BME280;32338;50.430;6.806;2022-10-16T01:44:37;66581.69;;;10.67;100.00
46614;BME280;32338;50.430;6.806;2022-10-16T01:47:05;66582.28;;;10.68;100.00
46614;BME280;32338;50.430;6.806;2022-10-16T01:49:36;66580.75;;;10.69;100.00
46614;BME280;32338;50.430;6.806;2022-10-16T01:52:08;66581.69;;;10.67;100.00
46614;BME280;32338;50.430;6.806;2022-10-16T01:54:37;66583.03;;;10.71;100.00
46614;BME280;32338;50.430;6.806;2022-10-16T01:57:07;66580.22;;;10.68;100.00
46614;BME280;32338;50.430;6.806;2022-10-16T01:59:41;66596.56;;;10.83;100.00
46614;BME280;32338;50.430;6.806;2022-10-16T02:02:09;66592.06;;;10.79;100.00
46614;BME280;32338;50.430;6.806;2022-10-16T02:04:40;66591.84;;;10.77;100.00
46614;BME280;32338;50.430;6.806;2022-10-16T02:07:08;66601.25;;;10.83;100.00
46614;BME280;32338;50.430;6.806;2022-10-16T02:09:35;66591.47;;;10.79;100.00
46614;BME280;32338;50.430;6.806;2022-10-16T02:12:07;66587.53;;;10.75;100.00
46614;BME280;32338;50.430;6.806;2022-10-16T02:14:39;66583.22;;;10.74;100.00
46614;BME280;32338;50.430;6.806;2022-10-16T02:17:11;66586.03;;;10.76;100.00
46614;BME280;32338;50.430;6.806;2022-10-16T02:19:38;66588.81;;;10.71;100.00
46614;BME280;32338;50.430;6.806;2022-10-16T02:22:08;66585.47;;;10.76;100.00
46614;BME280;32338;50.430;6.806;2022-10-16T02:24:39;66580.97;;;10.71;100.00
46614;BME280;32338;50.430;6.806;2022-10-16T02:27:11;66584.16;;;10.72;100.00
46614;BME280;32338;50.430;6.806;2022-10-16T02:29:43;66597.50;;;10.82;100.00
46614;BME280;32338;50.430;6.806;2022-10-16T02:32:16;66594.28;;;10.81;100.00
46614;BME280;32338;50.430;6.806;2022-10-16T02:34:45;66590.34;;;10.78;100.00
46614;BME280;32338;50.430;6.806;2022-10-16T02:37:13;66585.66;;;10.71;100.00
46614;BME280;32338;50.430;6.806;2022-10-16T02:39:40;66587.53;;;10.75;100.00
46614;BME280;32338;50.430;6.806;2022-10-16T02:42:10;66585.28;;;10.73;100.00
46614;BME280;32338;50.430;6.806;2022-10-16T02:44:37;66584.16;;;10.72;100.00
46614;BME280;32338;50.430;6.806;2022-10-16T02:47:05;66586.22;;;10.71;100.00
46614;BME280;32338;50.430;6.806;2022-10-16T02:49:32;66585.84;;;10.74;100.00
46614;BME280;32338;50.430;6.806;2022-10-16T02:51:58;66591.09;;;10.74;100.00
46614;BME280;32338;50.430;6.806;2022-10-16T02:54:25;66578.16;;;10.69;100.00
46614;BME280;32338;50.430;6.806;2022-10-16T02:56:51;66587.91;;;10.73;100.00
46614;BME280;32338;50.430;6.806;2022-10-16T02:59:18;66582.47;;;10.70;100.00
46614;BME280;32338;50.430;6.806;2022-10-16T03:01:45;66583.59;;;10.71;100.00
46614;BME280;32338;50.430;6.806;2022-10-16T03:04:13;66582.09;;;10.73;100.00
46614;BME280;32338;50.430;6.806;2022-10-16T03:06:40;66585.66;;;10.71;100.00
46614;BME280;32338;50.430;6.806;2022-10-16T03:09:06;66585.47;;;10.68;100.00
46614;BME280;32338;50.430;6.806;2022-10-16T03:11:33;66578.72;;;10.69;100.00
46614;BME280;32338;50.430;6.806;2022-10-16T03:13:59;66578.16;;;10.69;100.00
46614;BME280;32338;50.430;6.806;2022-10-16T03:16:26;66581.53;;;10.72;100.00
46614;BME280;32338;50.430;6.806;2022-10-16T03:18:53;66575.91;;;10.67;100.00
46614;BME280;32338;50.430;6.806;2022-10-16T03:21:21;66582.09;;;10.73;100.00
46614;BME280;32338;50.430;6.806;2022-10-16T03:23:47;66585.28;;;10.73;100.00
46614;BME280;32338;50.430;6.806;2022-10-16T03:26:14;66580.03;;;10.73;100.00
46614;BME280;32338;50.430;6.806;2022-10-16T03:28:40;66581.53;;;10.72;100.00
46614;BME280;32338;50.430;6.806;2022-10-16T03:31:07;66595.78;;;10.80;100.00
46614;BME280;32338;50.430;6.806;2022-10-16T03:33:34;66595.22;;;10.80;100.00
46614;BME280;32338;50.430;6.806;2022-10-16T03:36:01;66589.78;;;10.77;100.00
46614;BME280;32338;50.430;6.806;2022-10-16T03:38:29;66586.63;;;10.77;100.00
46614;BME280;32338;50.430;6.806;2022-10-16T03:40:55;66594.09;;;10.79;100.00
46614;BME280;32338;50.430;6.806;2022-10-16T03:43:22;66596.00;;;10.83;100.00
46614;BME280;32338;50.430;6.806;2022-10-16T03:45:49;66592.06;;;10.79;100.00
46614;BME280;32338;50.430;6.806;2022-10-16T03:48:16;66589.78;;;10.77;100.00
46614;BME280;32338;50.430;6.806;2022-10-16T03:50:43;66596.38;;;10.88;100.00
46614;BME280;32338;50.430;6.806;2022-10-16T03:53:09;66615.53;;;10.98;100.00
46614;BME280;32338;50.430;6.806;2022-10-16T03:55:38;66605.94;;;10.90;100.00
46614;BME280;32338;50.430;6.806;2022-10-16T03:58:04;66602.97;;;10.92;100.00
46614;BME280;32338;50.430;6.806;2022-10-16T04:00:31;66597.09;;;10.84;100.00
46614;BME280;32338;50.430;6.806;2022-10-16T04:02:58;66594.09;;;10.79;100.00
46614;BME280;32338;50.430;6.806;2022-10-16T04:05:24;66597.50;;;10.82;100.00
46614;BME280;32338;50.430;6.806;2022-10-16T04:07:51;66591.28;;;10.76;100.00
46614;BME280;32338;50.430;6.806;2022-10-16T04:10:18;66587.72;;;10.78;100.00
46614;BME280;32338;50.430;6.806;2022-10-16T04:12:46;66596.72;;;10.79;100.00
46614;BME280;32338;50.430;6.806;2022-10-16T04:15:12;66601.81;;;10.83;100.00
46614;BME280;32338;50.430;6.806;2022-10-16T04:17:39;66598.25;;;10.85;100.00
46614;BME280;32338;50.430;6.806;2022-10-16T04:20:06;66597.31;;;10.86;100.00
46614;BME280;32338;50.430;6.806;2022-10-16T04:22:33;66597.69;;;10.84;100.00
46614;BME280;32338;50.430;6.806;2022-10-16T04:25:00;66601.25;;;10.90;100.00
46614;BME280;32338;50.430;6.806;2022-10-16T04:27:26;66605.38;;;10.89;100.00
46614;BME280;32338;50.430;6.806;2022-10-16T04:29:54;66595.63;;;10.85;100.00
46614;BME280;32338;50.430;6.806;2022-10-16T04:32:21;66602.75;;;10.89;100.00
46614;BME280;32338;50.430;6.806;2022-10-16T04:34:48;66602.53;;;10.86;100.00
46614;BME280;32338;50.430;6.806;2022-10-16T04:37:14;66598.44;;;10.87;100.00
46614;BME280;32338;50.430;6.806;2022-10-16T04:39:41;66614.03;;;10.99;100.00
46614;BME280;32338;50.430;6.806;2022-10-16T04:42:07;66606.13;;;10.92;100.00
46614;BME280;32338;50.430;6.806;2022-10-16T04:44:34;66607.81;;;10.94;100.00
46614;BME280;32338;50.430;6.806;2022-10-16T04:47:02;66612.69;;;10.96;100.00
46614;BME280;32338;50.430;6.806;2022-10-16T04:49:29;66608.00;;;10.96;100.00
46614;BME280;32338;50.430;6.806;2022-10-16T04:51:56;66607.25;;;10.93;100.00
46614;BME280;32338;50.430;6.806;2022-10-16T04:54:23;66615.53;;;10.98;100.00
46614;BME280;32338;50.430;6.806;2022-10-16T04:56:49;66606.53;;;10.97;100.00
46614;BME280;32338;50.430;6.806;2022-10-16T04:59:17;66612.31;;;10.98;100.00
46614;BME280;32338;50.430;6.806;2022-10-16T05:01:45;66620.78;;;11.06;100.00
46614;BME280;32338;50.430;6.806;2022-10-16T05:04:13;66639.56;;;11.18;100.00
46614;BME280;32338;50.430;6.806;2022-10-16T05:06:40;66622.47;;;11.07;100.00
46614;BME280;32338;50.430;6.806;2022-10-16T05:09:07;66618.72;;;11.06;100.00
46614;BME280;32338;50.430;6.806;2022-10-16T05:11:34;66635.06;;;11.21;100.00
46614;BME280;32338;50.430;6.806;2022-10-16T05:14:02;66631.69;;;11.18;100.00
46614;BME280;32338;50.430;6.806;2022-10-16T05:16:28;66631.50;;;11.15;100.00
46614;BME280;32338;50.430;6.806;2022-10-16T05:18:55;66632.22;;;11.11;100.00
46614;BME280;32338;50.430;6.806;2022-10-16T05:21:23;66627.91;;;11.10;100.00
46614;BME280;32338;50.430;6.806;2022-10-16T05:23:50;66631.28;;;11.13;100.00
46614;BME280;32338;50.430;6.806;2022-10-16T05:26:16;66620.22;;;11.05;100.00
46614;BME280;32338;50.430;6.806;2022-10-16T05:28:43;66617.41;;;11.02;100.00
46614;BME280;32338;50.430;6.806;2022-10-16T05:31:09;66611.97;;;11.00;100.00
46614;BME280;32338;50.430;6.806;2022-10-16T05:33:36;66616.84;;;11.02;100.00
46614;BME280;32338;50.430;6.806;2022-10-16T05:36:04;66624.53;;;11.07;100.00
46614;BME280;32338;50.430;6.806;2022-10-16T05:38:34;66619.66;;;11.05;100.00
46614;BME280;32338;50.430;6.806;2022-10-16T05:41:01;66612.53;;;11.00;100.00
46614;BME280;32338;50.430;6.806;2022-10-16T05:43:28;66611.97;;;11.00;100.00
46614;BME280;32338;50.430;6.806;2022-10-16T05:45:56;66636.38;;;11.17;100.00
46614;BME280;32338;50.430;6.806;2022-10-16T05:48:22;66632.81;;;11.12;100.00
46614;BME280;32338;50.430;6.806;2022-10-16T05:50:56;66624.34;;;11.11;100.00
46614;BME280;32338;50.430;6.806;2022-10-16T05:53:23;66617.59;;;11.05;100.00
46614;BME280;32338;50.430;6.806;2022-10-16T05:55:55;66615.91;;;11.03;100.00
46614;BME280;32338;50.430;6.806;2022-10-16T05:58:22;66617.03;;;11.05;100.00
46614;BME280;32338;50.430;6.806;2022-10-16T06:00:56;66621.53;;;11.09;100.00
46614;BME280;32338;50.430;6.806;2022-10-16T06:03:23;66631.50;;;11.15;100.00
46614;BME280;32338;50.430;6.806;2022-10-16T06:05:51;66628.66;;;11.13;100.00
46614;BME280;32338;50.430;6.806;2022-10-16T06:08:17;66633.56;;;11.15;100.00
46614;BME280;32338;50.430;6.806;2022-10-16T06:10:44;66637.13;;;11.21;100.00
46614;BME280;32338;50.430;6.806;2022-10-16T06:13:13;66628.31;;;11.15;100.00
46614;BME280;32338;50.430;6.806;2022-10-16T06:15:41;66627.19;;;11.14;100.00
46614;BME280;32338;50.430;6.806;2022-10-16T06:18:08;66630.19;;;11.12;100.00
46614;BME280;32338;50.430;6.806;2022-10-16T06:20:35;66625.69;;;11.15;100.00
46614;BME280;32338;50.430;6.806;2022-10-16T06:23:01;66628.31;;;11.15;100.00
46614;BME280;32338;50.430;6.806;2022-10-16T06:25:29;66627.56;;;11.12;100.00
46614;BME280;32338;50.430;6.806;2022-10-16T06:27:55;66626.63;;;11.13;100.00
46614;BME280;32338;50.430;6.806;2022-10-16T06:30:23;66636.00;;;11.19;100.00
46614;BME280;32338;50.430;6.806;2022-10-16T06:32:50;66635.44;;;11.19;100.00
46614;BME280;32338;50.430;6.806;2022-10-16T06:35:16;66636.00;;;11.19;100.00
46614;BME280;32338;50.430;6.806;2022-10-16T06:37:43;66625.50;;;11.12;100.00
46614;BME280;32338;50.430;6.806;2022-10-16T06:40:10;66628.13;;;11.12;100.00
46614;BME280;32338;50.430;6.806;2022-10-16T06:42:36;66624.94;;;11.12;100.00
46614;BME280;32338;50.430;6.806;2022-10-16T06:45:03;66628.13;;;11.12;100.00
46614;BME280;32338;50.430;6.806;2022-10-16T06:47:31;66627.56;;;11.12;100.00
46614;BME280;32338;50.430;6.806;2022-10-16T06:49:58;66622.66;;;11.10;100.00
46614;BME280;32338;50.430;6.806;2022-10-16T06:52:28;66622.66;;;11.10;100.00
46614;BME280;32338;50.430;6.806;2022-10-16T06:54:54;66629.81;;;11.14;100.00
46614;BME280;32338;50.430;6.806;2022-10-16T06:57:21;66639.38;;;11.23;100.00
46614;BME280;32338;50.430;6.806;2022-10-16T06:59:47;66645.59;;;11.28;100.00
46614;BME280;32338;50.430;6.806;2022-10-16T07:02:14;66642.00;;;11.23;100.00
46614;BME280;32338;50.430;6.806;2022-10-16T07:04:42;66642.19;;;11.25;100.00
46614;BME280;32338;50.430;6.806;2022-10-16T07:07:09;66650.47;;;11.30;100.00
46614;BME280;32338;50.430;6.806;2022-10-16T07:09:35;66650.28;;;11.35;100.00
46614;BME280;32338;50.430;6.806;2022-10-16T07:12:02;66639.22;;;11.27;100.00
46614;BME280;32338;50.430;6.806;2022-10-16T07:14:29;66649.53;;;11.32;100.00
46614;BME280;32338;50.430;6.806;2022-10-16T07:16:56;66653.50;;;11.35;100.00
46614;BME280;32338;50.430;6.806;2022-10-16T07:19:22;66659.50;;;11.39;100.00
46614;BME280;32338;50.430;6.806;2022-10-16T07:21:51;66652.34;;;11.34;100.00
46614;BME280;32338;50.430;6.806;2022-10-16T07:24:18;66655.94;;;11.40;100.00
46614;BME280;32338;50.430;6.806;2022-10-16T07:26:45;66658.94;;;11.38;100.00
46614;BME280;32338;50.430;6.806;2022-10-16T07:29:13;66660.25;;;11.42;100.00
46614;BME280;32338;50.430;6.806;2022-10-16T07:31:40;66669.63;;;11.48;100.00
46614;BME280;32338;50.430;6.806;2022-10-16T07:34:10;66676.97;;;11.55;100.00
46614;BME280;32338;50.430;6.806;2022-10-16T07:36:38;66678.69;;;11.63;100.00
46614;BME280;32338;50.430;6.806;2022-10-16T07:39:06;66683.56;;;11.65;100.00
46614;BME280;32338;50.430;6.806;2022-10-16T07:41:34;66680.53;;;11.60;100.00
46614;BME280;32338;50.430;6.806;2022-10-16T07:44:02;66685.25;;;11.60;100.00
46614;BME280;32338;50.430;6.806;2022-10-16T07:46:29;66684.88;;;11.69;100.00
46614;BME280;32338;50.430;6.806;2022-10-16T07:48:56;66702.53;;;11.80;100.00
46614;BME280;32338;50.430;6.806;2022-10-16T07:51:25;66692.59;;;11.74;100.00
46614;BME280;32338;50.430;6.806;2022-10-16T07:53:52;66700.09;;;11.76;100.00
46614;BME280;32338;50.430;6.806;2022-10-16T07:56:21;66696.91;;;11.75;100.00
46614;BME280;32338;50.430;6.806;2022-10-16T07:58:48;66703.66;;;11.81;100.00
46614;BME280;32338;50.430;6.806;2022-10-16T08:01:16;66697.84;;;11.74;100.00
46614;BME280;32338;50.430;6.806;2022-10-16T08:03:44;66697.47;;;11.76;100.00
46614;BME280;32338;50.430;6.806;2022-10-16T08:06:11;66702.34;;;11.78;100.00
46614;BME280;32338;50.430;6.806;2022-10-16T08:08:38;66707.81;;;11.88;100.00
46614;BME280;32338;50.430;6.806;2022-10-16T08:11:04;66710.25;;;11.85;100.00
46614;BME280;32338;50.430;6.806;2022-10-16T08:13:32;66712.88;;;11.92;100.00
46614;BME280;32338;50.430;6.806;2022-10-16T08:15:59;66723.25;;;11.97;100.00
46614;BME280;32338;50.430;6.806;2022-10-16T08:18:26;66724.34;;;11.98;100.00
46614;BME280;32338;50.430;6.806;2022-10-16T08:20:57;66730.22;;;12.06;100.00
46614;BME280;32338;50.430;6.806;2022-10-16T08:23:25;66732.09;;;12.10;100.00
46614;BME280;32338;50.430;6.806;2022-10-16T08:25:52;66734.16;;;12.09;100.00
46614;BME280;32338;50.430;6.806;2022-10-16T08:28:20;66747.50;;;12.19;100.00
46614;BME280;32338;50.430;6.806;2022-10-16T08:30:48;66736.59;;;12.14;100.00
46614;BME280;32338;50.430;6.806;2022-10-16T08:33:14;66735.47;;;12.13;100.00
46614;BME280;32338;50.430;6.806;2022-10-16T08:35:41;66747.31;;;12.24;100.00
46614;BME280;32338;50.430;6.806;2022-10-16T08:38:07;66749.94;;;12.24;100.00
46614;BME280;32338;50.430;6.806;2022-10-16T08:40:36;66752.03;;;12.30;100.00
46614;BME280;32338;50.430;6.806;2022-10-16T08:43:14;66757.28;;;12.30;100.00
46614;BME280;32338;50.430;6.806;2022-10-16T08:46:04;66760.88;;;12.36;100.00
46614;BME280;32338;50.430;6.806;2022-10-16T08:48:43;66786.63;;;12.57;100.00
46614;BME280;32338;50.430;6.806;2022-10-16T08:51:15;66808.06;;;12.77;100.00
46614;BME280;32338;50.430;6.806;2022-10-16T08:53:48;66825.56;;;12.93;100.00
46614;BME280;32338;50.430;6.806;2022-10-16T08:56:15;66816.34;;;12.89;100.00
46614;BME280;32338;50.430;6.806;2022-10-16T08:58:44;66815.78;;;12.81;100.00
46614;BME280;32338;50.430;6.806;2022-10-16T09:01:14;66822.94;;;12.86;100.00
46614;BME280;32338;50.430;6.806;2022-10-16T09:06:40;66820.13;;;12.90;100.00
46614;BME280;32338;50.430;6.806;2022-10-16T09:09:27;66812.22;;;12.83;100.00
46614;BME280;32338;50.430;6.806;2022-10-16T09:11:58;66818.06;;;12.84;100.00
46614;BME280;32338;50.430;6.806;2022-10-16T09:14:43;66829.91;;;12.94;100.00
46614;BME280;32338;50.430;6.806;2022-10-16T09:17:24;66834.81;;;13.04;100.00
46614;BME280;32338;50.430;6.806;2022-10-16T09:19:56;66860.97;;;13.30;100.00
46614;BME280;32338;50.430;6.806;2022-10-16T09:22:31;66869.25;;;13.35;100.00
46614;BME280;32338;50.430;6.806;2022-10-16T09:25:00;66866.06;;;13.35;100.00
46614;BME280;32338;50.430;6.806;2022-10-16T09:27:37;66883.56;;;13.43;100.00
46614;BME280;32338;50.430;6.806;2022-10-16T09:30:11;66884.69;;;13.44;100.00
46614;BME280;32338;50.430;6.806;2022-10-16T09:32:40;66882.63;;;13.45;100.00
46614;BME280;32338;50.430;6.806;2022-10-16T09:35:11;66868.09;;;13.34;100.00
46614;BME280;32338;50.430;6.806;2022-10-16T09:37:40;66877.53;;;13.40;100.00
46614;BME280;32338;50.430;6.806;2022-10-16T09:40:12;66894.50;;;13.56;100.00
46614;BME280;32338;50.430;6.806;2022-10-16T09:42:39;66907.84;;;13.66;100.00
46614;BME280;32338;50.430;6.806;2022-10-16T09:45:21;66933.28;;;13.89;100.00
46614;BME280;32338;50.430;6.806;2022-10-16T09:47:49;66952.13;;;14.08;100.00
46614;BME280;32338;50.430;6.806;2022-10-16T09:50:21;66956.06;;;14.12;100.00
46614;BME280;32338;50.430;6.806;2022-10-16T09:52:49;66960.22;;;14.18;100.00
46614;BME280;32338;50.430;6.806;2022-10-16T09:55:17;66968.88;;;14.21;100.00
46614;BME280;32338;50.430;6.806;2022-10-16T09:57:50;66966.25;;;14.21;100.00
46614;BME280;32338;50.430;6.806;2022-10-16T10:00:17;66986.22;;;14.42;100.00
46614;BME280;32338;50.430;6.806;2022-10-16T10:02:45;67009.78;;;14.61;100.00
46614;BME280;32338;50.430;6.806;2022-10-16T10:05:21;67012.25;;;14.66;100.00
46614;BME280;32338;50.430;6.806;2022-10-16T10:07:54;67014.50;;;14.68;100.00
46614;BME280;32338;50.430;6.806;2022-10-16T10:10:23;67005.63;;;14.62;100.00
46614;BME280;32338;50.430;6.806;2022-10-16T10:12:51;67003.75;;;14.58;100.00
46614;BME280;32338;50.430;6.806;2022-10-16T10:15:18;66994.31;;;14.44;100.00
46614;BME280;32338;50.430;6.806;2022-10-16T10:17:48;66986.03;;;14.39;100.00
46614;BME280;32338;50.430;6.806;2022-10-16T10:20:24;66993.38;;;14.46;100.00
46614;BME280;32338;50.430;6.806;2022-10-16T10:22:52;67008.47;;;14.57;100.00
46614;BME280;32338;50.430;6.806;2022-10-16T10:25:41;67019.03;;;14.72;100.00
46614;BME280;32338;50.430;6.806;2022-10-16T10:31:20;67032.03;;;14.84;100.00
46614;BME280;32338;50.430;6.806;2022-10-16T10:33:57;67031.66;;;14.79;100.00
46614;BME280;32338;50.430;6.806;2022-10-16T10:36:32;67001.47;;;14.56;100.00
46614;BME280;32338;50.430;6.806;2022-10-16T10:39:02;66992.25;;;14.45;100.00
46614;BME280;32338;50.430;6.806;2022-10-16T10:44:52;67001.09;;;14.51;100.00
46614;BME280;32338;50.430;6.806;2022-10-16T10:47:29;67002.22;;;14.52;100.00
46614;BME280;32338;50.430;6.806;2022-10-16T10:50:07;66996.94;;;14.52;100.00
46614;BME280;32338;50.430;6.806;2022-10-16T10:52:43;67000.16;;;14.52;100.00
46614;BME280;32338;50.430;6.806;2022-10-16T10:55:21;67001.28;;;14.53;100.00
46614;BME280;32338;50.430;6.806;2022-10-16T10:58:22;66966.44;;;14.24;100.00
46614;BME280;32338;50.430;6.806;2022-10-16T11:00:58;66956.84;;;14.15;100.00
46614;BME280;32338;50.430;6.806;2022-10-16T11:03:55;66969.44;;;14.22;100.00
46614;BME280;32338;50.430;6.806;2022-10-16T11:06:26;66985.47;;;14.39;100.00
46614;BME280;32338;50.430;6.806;2022-10-16T11:09:00;67002.03;;;14.56;100.00
46614;BME280;32338;50.430;6.806;2022-10-16T11:11:33;67042.38;;;14.88;100.00
46614;BME280;32338;50.430;6.806;2022-10-16T11:14:04;67036.38;;;14.85;100.00
46614;BME280;32338;50.430;6.806;2022-10-16T11:16:40;67028.63;;;14.81;100.00
46614;BME280;32338;50.430;6.806;2022-10-16T11:19:13;67028.63;;;14.81;100.00
46614;BME280;32338;50.430;6.806;2022-10-16T11:21:45;67050.13;;;15.00;100.00
46614;BME280;32338;50.430;6.806;2022-10-16T11:24:21;67060.13;;;15.07;100.00
46614;BME280;32338;50.430;6.806;2022-10-16T11:26:50;67046.16;;;14.97;100.00
46614;BME280;32338;50.430;6.806;2022-10-16T11:29:22;67034.69;;;14.84;100.00
46614;BME280;32338;50.430;6.806;2022-10-16T11:31:54;67031.84;;;14.81;100.00
46614;BME280;32338;50.430;6.806;2022-10-16T11:34:27;67017.69;;;14.68;100.00
46614;BME280;32338;50.430;6.806;2022-10-16T11:36:58;67005.63;;;14.62;100.00
46614;BME280;32338;50.430;6.806;2022-10-16T11:39:29;67013.94;;;14.67;100.00
46614;BME280;32338;50.430;6.806;2022-10-16T11:42:01;67022.25;;;14.72;100.00
46614;BME280;32338;50.430;6.806;2022-10-16T11:44:50;67032.03;;;14.84;100.00
46614;BME280;32338;50.430;6.806;2022-10-16T11:47:26;67045.03;;;14.96;100.00
46614;BME280;32338;50.430;6.806;2022-10-16T11:49:58;67048.44;;;14.99;100.00
46614;BME280;32338;50.430;6.806;2022-10-16T11:52:31;67064.06;;;15.11;100.00
46614;BME280;32338;50.430;6.806;2022-10-16T11:55:06;67067.28;;;15.11;100.00
46614;BME280;32338;50.430;6.806;2022-10-16T11:57:41;67058.59;;;15.08;100.00
46614;BME280;32338;50.430;6.806;2022-10-16T12:00:19;67057.28;;;15.04;100.00
46614;BME280;32338;50.430;6.806;2022-10-16T12:02:56;67067.66;;;15.16;100.00
46614;BME280;32338;50.430;6.806;2022-10-16T12:05:29;67075.56;;;15.23;100.00
46614;BME280;32338;50.430;6.806;2022-10-16T12:08:06;67078.59;;;15.21;100.00
46614;BME280;32338;50.430;6.806;2022-10-16T12:10:36;67095.00;;;15.36;100.00
46614;BME280;32338;50.430;6.806;2022-10-16T12:13:04;67088.41;;;15.33;100.00
46614;BME280;32338;50.430;6.806;2022-10-16T12:15:32;67103.31;;;15.49;100.00
46614;BME280;32338;50.430;6.806;2022-10-16T12:17:59;67094.06;;;15.38;100.00
46614;BME280;32338;50.430;6.806;2022-10-16T12:20:28;67112.91;;;15.57;100.00
46614;BME280;32338;50.430;6.806;2022-10-16T12:22:59;67103.66;;;15.47;100.00
46614;BME280;32338;50.430;6.806;2022-10-16T12:25:29;67110.09;;;15.55;100.00
46614;BME280;32338;50.430;6.806;2022-10-16T12:28:02;67123.84;;;15.63;100.00
46614;BME280;32338;50.430;6.806;2022-10-16T12:30:31;67122.13;;;15.68;100.00
46614;BME280;32338;50.430;6.806;2022-10-16T12:33:01;67105.19;;;15.46;100.00
46614;BME280;32338;50.430;6.806;2022-10-16T12:35:31;67089.16;;;15.36;100.00
46614;BME280;32338;50.430;6.806;2022-10-16T12:38:06;67084.63;;;15.32;100.00
46614;BME280;32338;50.430;6.806;2022-10-16T12:40:35;67073.88;;;15.22;100.00
46614;BME280;32338;50.430;6.806;2022-10-16T12:43:26;67089.72;;;15.36;100.00
46614;BME280;32338;50.430;6.806;2022-10-16T12:46:01;67085.75;;;15.33;100.00
46614;BME280;32338;50.430;6.806;2022-10-16T12:48:28;67086.91;;;15.34;100.00
46614;BME280;32338;50.430;6.806;2022-10-16T12:50:55;67099.91;;;15.46;100.00
46614;BME280;32338;50.430;6.806;2022-10-16T12:53:23;67111.03;;;15.53;100.00
46614;BME280;32338;50.430;6.806;2022-10-16T12:55:58;67103.66;;;15.47;100.00
46614;BME280;32338;50.430;6.806;2022-10-16T12:58:41;67103.50;;;15.44;100.00
46614;BME280;32338;50.430;6.806;2022-10-16T13:01:20;67100.84;;;15.44;100.00
46614;BME280;32338;50.430;6.806;2022-10-16T13:04:03;67107.25;;;15.52;100.00
46614;BME280;32338;50.430;6.806;2022-10-16T13:06:39;67144.22;;;15.88;100.00
46614;BME280;32338;50.430;6.806;2022-10-16T13:09:19;67147.81;;;15.87;100.00
46614;BME280;32338;50.430;6.806;2022-10-16T13:12:15;67147.28;;;15.86;100.00
46614;BME280;32338;50.430;6.806;2022-10-16T13:15:01;67148.19;;;15.92;100.00